createdAt,value
2023-04-16T00:00:52.954Z,11.49
2023-04-16T00:03:19.312Z,11.54
2023-04-16T00:05:45.564Z,11.30
2023-04-16T00:08:11.818Z,11.02
2023-04-16T00:10:38.090Z,11.19
2023-04-16T00:13:04.154Z,11.35
2023-04-16T00:15:30.217Z,10.80
2023-04-16T00:17:56.323Z,11.54
2023-04-16T00:20:22.419Z,11.26
2023-04-16T00:22:48.541Z,11.78
2023-04-16T00:25:14.842Z,11.21
2023-04-16T00:27:40.915Z,11.13
2023-04-16T00:30:07.485Z,11.84
2023-04-16T00:32:33.754Z,11.89
2023-04-16T00:35:00.042Z,11.75
2023-04-16T00:37:26.113Z,12.02
2023-04-16T00:39:52.197Z,11.97
2023-04-16T00:42:18.321Z,12.03
2023-04-16T00:44:44.384Z,11.52
2023-04-16T00:47:10.844Z,11.85
2023-04-16T00:49:37.073Z,12.00
2023-04-16T00:52:03.233Z,11.29
2023-04-16T00:54:30.004Z,10.59
2023-04-16T00:56:57.534Z,11.35
2023-04-16T00:59:23.633Z,11.29
2023-04-16T01:01:49.977Z,12.11
2023-04-16T01:04:16.558Z,11.82
2023-04-16T01:06:42.728Z,11.72
2023-04-16T01:09:11.230Z,12.06
2023-04-16T01:11:37.516Z,11.93
2023-04-16T01:14:03.713Z,11.85
2023-04-16T01:16:30.300Z,11.93
2023-04-16T01:18:56.369Z,11.71
2023-04-16T01:21:22.437Z,11.79
2023-04-16T01:23:48.521Z,11.46
2023-04-16T01:26:14.910Z,11.32
2023-04-16T01:28:41.423Z,11.70
2023-04-16T01:31:07.511Z,11.15
2023-04-16T01:33:33.619Z,11.44
2023-04-16T01:35:59.781Z,11.14
2023-04-16T01:38:25.871Z,11.39
2023-04-16T01:40:56.895Z,10.77
2023-04-16T01:43:22.992Z,11.82
2023-04-16T01:45:49.060Z,11.45
2023-04-16T01:48:15.204Z,11.79
2023-04-16T01:50:41.285Z,10.83
2023-04-16T01:53:08.914Z,11.05
2023-04-16T01:55:35.091Z,10.92
2023-04-16T01:58:01.164Z,11.31
2023-04-16T02:00:27.303Z,11.20
2023-04-16T02:02:53.787Z,11.43
2023-04-16T02:05:20.103Z,10.99
2023-04-16T02:07:46.279Z,11.45
2023-04-16T02:10:12.365Z,11.03
2023-04-16T02:12:38.513Z,11.54
2023-04-16T02:15:05.034Z,11.33
2023-04-16T02:17:31.120Z,11.00
2023-04-16T02:19:57.198Z,11.17
2023-04-16T02:22:23.457Z,11.50
2023-04-16T02:24:50.438Z,11.62
2023-04-16T02:27:16.499Z,11.48
2023-04-16T02:29:42.658Z,11.75
2023-04-16T02:32:08.935Z,11.63
2023-04-16T02:34:35.243Z,11.59
2023-04-16T02:37:01.382Z,11.45
2023-04-16T02:39:27.440Z,11.57
2023-04-16T02:41:53.705Z,10.97
2023-04-16T02:44:19.885Z,11.06
2023-04-16T02:46:46.002Z,11.63
2023-04-16T02:49:12.254Z,11.20
2023-04-16T02:51:38.417Z,10.92
2023-04-16T02:54:04.635Z,11.67
2023-04-16T02:56:30.716Z,11.15
2023-04-16T02:58:56.775Z,11.46
2023-04-16T03:01:22.900Z,11.54
2023-04-16T03:03:49.029Z,11.24
2023-04-16T03:06:15.563Z,11.53
2023-04-16T03:08:41.609Z,11.84
2023-04-16T03:11:07.663Z,11.86
2023-04-16T03:13:33.778Z,11.52
2023-04-16T03:15:59.867Z,11.88
2023-04-16T03:18:25.991Z,11.85
2023-04-16T03:20:52.773Z,11.49
2023-04-16T03:23:18.985Z,11.70
2023-04-16T03:25:47.255Z,11.40
2023-04-16T03:28:14.133Z,11.63
2023-04-16T03:30:40.257Z,11.66
2023-04-16T03:33:06.303Z,11.57
2023-04-16T03:35:32.680Z,11.46
2023-04-16T03:37:58.732Z,11.49
2023-04-16T03:40:25.367Z,11.32
2023-04-16T03:42:51.438Z,11.40
2023-04-16T03:45:17.729Z,11.29
2023-04-16T03:47:43.849Z,11.49
2023-04-16T03:50:10.975Z,10.78
2023-04-16T03:52:37.110Z,11.39
2023-04-16T03:55:03.467Z,11.58
2023-04-16T03:57:29.697Z,11.38
2023-04-16T03:59:55.779Z,11.80
2023-04-16T04:02:21.994Z,11.65
2023-04-16T04:04:48.289Z,11.15
2023-04-16T04:07:15.681Z,11.79
2023-04-16T04:09:41.714Z,11.90
2023-04-16T04:12:09.401Z,11.44
2023-04-16T04:14:39.108Z,11.67
2023-04-16T04:17:06.010Z,11.63
2023-04-16T04:19:32.312Z,11.49
2023-04-16T04:21:58.380Z,11.17
2023-04-16T04:24:25.218Z,11.33
2023-04-16T04:26:51.334Z,11.49
2023-04-16T04:29:17.431Z,11.26
2023-04-16T04:31:43.586Z,11.63
2023-04-16T04:34:09.772Z,11.30
2023-04-16T04:36:35.855Z,11.33
2023-04-16T04:39:01.945Z,11.66
2023-04-16T04:41:27.991Z,11.92
2023-04-16T04:43:54.090Z,11.81
2023-04-16T04:46:20.304Z,11.64
2023-04-16T04:48:46.484Z,11.45
2023-04-16T04:51:12.669Z,11.31
2023-04-16T04:53:38.758Z,11.33
2023-04-16T04:56:11.648Z,11.64
2023-04-16T04:58:38.392Z,11.83
2023-04-16T05:01:04.545Z,11.83
2023-04-16T05:03:30.668Z,11.52
2023-04-16T05:05:56.863Z,11.64
2023-04-16T05:08:22.903Z,11.30
2023-04-16T05:10:49.013Z,11.07
2023-04-16T05:13:15.122Z,10.82
2023-04-16T05:15:41.261Z,10.99
2023-04-16T05:18:07.307Z,10.88
2023-04-16T05:20:33.515Z,10.90
2023-04-16T05:22:59.682Z,11.48
2023-04-16T05:25:25.855Z,11.35
2023-04-16T05:27:51.903Z,11.18
2023-04-16T05:30:18.441Z,10.33
2023-04-16T05:32:44.578Z,11.79
2023-04-16T05:35:10.699Z,11.78
2023-04-16T05:37:36.757Z,12.01
2023-04-16T05:40:03.331Z,11.80
2023-04-16T05:42:29.389Z,12.11
2023-04-16T05:44:55.531Z,11.32
2023-04-16T05:47:21.763Z,11.46
2023-04-16T05:49:47.829Z,11.50
2023-04-16T05:52:14.310Z,10.86
2023-04-16T05:54:40.384Z,11.58
2023-04-16T05:57:06.439Z,11.19
2023-04-16T05:59:32.511Z,11.22
2023-04-16T06:01:58.586Z,10.98
2023-04-16T06:04:25.100Z,10.93
2023-04-16T06:06:51.203Z,11.15
2023-04-16T06:09:18.210Z,11.36
2023-04-16T06:11:44.332Z,10.02
2023-04-16T06:14:10.489Z,11.32
2023-04-16T06:16:36.697Z,11.10
2023-04-16T06:19:02.822Z,11.27
2023-04-16T06:21:28.914Z,11.49
2023-04-16T06:23:55.503Z,11.57
2023-04-16T06:26:21.808Z,11.08
2023-04-16T06:28:48.129Z,11.54
2023-04-16T06:31:14.344Z,10.83
2023-04-16T06:33:40.434Z,11.38
2023-04-16T06:36:06.611Z,11.18
2023-04-16T06:38:32.652Z,11.35
2023-04-16T06:40:58.956Z,11.59
2023-04-16T06:43:25.118Z,11.61
2023-04-16T06:45:51.443Z,11.55
2023-04-16T06:48:17.977Z,11.73
2023-04-16T06:50:44.099Z,11.69
2023-04-16T06:53:10.238Z,11.96
2023-04-16T06:55:36.281Z,11.29
2023-04-16T06:58:02.925Z,11.27
2023-04-16T07:00:29.157Z,10.34
2023-04-16T07:02:58.283Z,11.39
2023-04-16T07:05:25.476Z,11.77
2023-04-16T07:07:51.687Z,11.87
2023-04-16T07:10:17.812Z,11.90
2023-04-16T07:12:43.999Z,12.21
2023-04-16T07:15:10.481Z,11.71
2023-04-16T07:17:36.564Z,11.54
2023-04-16T07:20:02.912Z,11.65
2023-04-16T07:22:28.969Z,11.19
2023-04-16T07:24:55.798Z,11.27
2023-04-16T07:27:21.933Z,11.66
2023-04-16T07:29:49.640Z,10.95
2023-04-16T07:32:16.046Z,10.98
2023-04-16T07:34:42.273Z,11.01
2023-04-16T07:37:08.455Z,10.95
2023-04-16T07:39:34.653Z,10.90
2023-04-16T07:42:00.760Z,11.10
2023-04-16T07:44:27.050Z,11.29
2023-04-16T07:46:53.169Z,11.18
2023-04-16T07:49:19.304Z,10.62
2023-04-16T07:51:46.092Z,11.13
2023-04-16T07:54:12.253Z,11.03
2023-04-16T07:56:38.352Z,10.72
2023-04-16T07:59:18.384Z,10.62
2023-04-16T08:01:48.949Z,11.17
2023-04-16T08:04:16.802Z,11.02
2023-04-16T08:06:42.970Z,10.51
2023-04-16T08:09:09.307Z,10.01
2023-04-16T08:11:35.516Z,9.86
2023-04-16T08:14:01.661Z,9.89
2023-04-16T08:16:27.761Z,10.49
2023-04-16T08:18:53.939Z,10.70
2023-04-16T08:21:20.032Z,10.58
2023-04-16T08:23:46.156Z,10.53
2023-04-16T08:26:12.257Z,10.81
2023-04-16T08:28:38.385Z,10.68
2023-04-16T08:31:04.814Z,9.94
2023-04-16T08:33:30.921Z,10.84
2023-04-16T08:35:57.468Z,10.55
2023-04-16T08:38:23.590Z,10.80
2023-04-16T08:40:50.011Z,10.46
2023-04-16T08:43:17.491Z,10.62
2023-04-16T08:45:45.509Z,10.98
2023-04-16T08:48:11.727Z,10.96
2023-04-16T08:50:38.201Z,10.65
2023-04-16T08:53:10.740Z,10.70
2023-04-16T08:55:48.841Z,10.46
2023-04-16T08:58:21.776Z,10.12
2023-04-16T09:00:52.928Z,10.96
2023-04-16T09:03:24.067Z,10.88
2023-04-16T09:05:56.901Z,10.90
2023-04-16T09:08:28.821Z,10.95
2023-04-16T09:10:59.782Z,10.63
2023-04-16T09:13:31.478Z,11.15
2023-04-16T09:16:03.123Z,11.08
2023-04-16T09:18:40.532Z,10.53
2023-04-16T09:21:12.013Z,11.24
2023-04-16T09:23:42.905Z,11.19
2023-04-16T09:26:17.980Z,11.46
2023-04-16T09:28:50.159Z,10.33
2023-04-16T09:31:18.941Z,10.55
2023-04-16T09:34:01.763Z,10.93
2023-04-16T09:36:28.303Z,10.85
2023-04-16T09:38:56.951Z,10.28
2023-04-16T09:41:26.521Z,11.07
2023-04-16T09:43:59.783Z,11.04
2023-04-16T09:46:33.483Z,10.91
2023-04-16T09:49:10.350Z,10.28
2023-04-16T09:51:43.775Z,10.94
2023-04-16T09:54:10.046Z,10.70
2023-04-16T09:56:43.410Z,11.30
2023-04-16T09:59:22.028Z,11.35
2023-04-16T10:01:49.220Z,11.01
2023-04-16T10:04:15.921Z,10.95
2023-04-16T10:06:42.056Z,11.45
2023-04-16T10:09:14.095Z,11.43
2023-04-16T10:11:45.239Z,11.67
2023-04-16T10:14:14.383Z,11.74
2023-04-16T10:16:46.933Z,10.66
2023-04-16T10:19:17.688Z,11.66
2023-04-16T10:21:47.843Z,11.08
2023-04-16T10:24:17.827Z,11.66
2023-04-16T10:26:49.400Z,11.36
2023-04-16T10:29:21.754Z,11.32
2023-04-16T10:31:50.047Z,11.77
2023-04-16T10:34:20.658Z,11.95
2023-04-16T10:36:52.296Z,12.06
2023-04-16T10:39:27.006Z,12.17
2023-04-16T10:42:12.750Z,11.95
2023-04-16T10:44:45.312Z,11.96
2023-04-16T10:47:13.124Z,11.94
2023-04-16T10:49:40.462Z,11.48
2023-04-16T10:52:12.894Z,8.67
2023-04-16T10:54:40.488Z,12.03
2023-04-16T10:57:15.476Z,12.26
2023-04-16T10:59:49.946Z,11.88
2023-04-16T11:02:17.260Z,12.32
2023-04-16T11:04:45.089Z,11.98
2023-04-16T11:07:14.275Z,12.33
2023-04-16T11:10:01.520Z,12.15
2023-04-16T11:12:36.672Z,11.99
2023-04-16T11:15:10.521Z,12.24
2023-04-16T11:17:46.608Z,11.94
2023-04-16T11:20:22.493Z,11.74
2023-04-16T11:22:57.411Z,11.62
2023-04-16T11:25:29.705Z,11.63
2023-04-16T11:28:01.860Z,10.84
2023-04-16T11:30:38.247Z,10.90
2023-04-16T11:33:10.734Z,11.24
2023-04-16T11:35:40.832Z,10.37
2023-04-16T11:38:07.910Z,11.37
2023-04-16T11:40:38.704Z,10.79
2023-04-16T11:43:14.262Z,11.85
2023-04-16T11:45:56.714Z,11.48
2023-04-16T11:48:23.623Z,11.72
2023-04-16T11:50:55.870Z,11.41
2023-04-16T11:53:28.419Z,11.94
2023-04-16T11:56:15.168Z,11.88
2023-04-16T11:59:08.789Z,11.57
2023-04-16T12:01:44.763Z,11.65
2023-04-16T12:04:19.365Z,11.54
2023-04-16T12:07:12.996Z,11.92
2023-04-16T12:09:43.978Z,11.69
2023-04-16T12:12:32.146Z,12.30
2023-04-16T12:15:02.468Z,12.19
2023-04-16T12:17:30.345Z,11.77
2023-04-16T12:20:14.227Z,11.66
2023-04-16T12:22:48.727Z,12.16
2023-04-16T12:25:16.440Z,10.71
2023-04-16T12:27:54.466Z,12.02
2023-04-16T12:30:22.942Z,11.65
2023-04-16T12:32:50.947Z,11.98
2023-04-16T12:35:30.837Z,11.92
2023-04-16T12:38:02.864Z,11.87
2023-04-16T12:40:28.994Z,12.05
2023-04-16T12:42:55.167Z,12.07
2023-04-16T12:45:25.622Z,12.54
2023-04-16T12:47:53.251Z,11.52
2023-04-16T12:50:19.392Z,12.63
2023-04-16T12:52:45.726Z,12.27
2023-04-16T12:55:16.478Z,12.79
2023-04-16T12:57:42.518Z,12.42
2023-04-16T13:00:10.019Z,12.37
2023-04-16T13:02:36.297Z,12.56
2023-04-16T13:05:08.506Z,12.17
2023-04-16T13:07:38.911Z,12.17
2023-04-16T13:10:09.729Z,12.20
2023-04-16T13:12:40.391Z,12.57
2023-04-16T13:15:11.072Z,12.09
2023-04-16T13:17:41.324Z,12.58
2023-04-16T13:20:11.741Z,11.74
2023-04-16T13:22:43.946Z,12.37
2023-04-16T13:25:13.932Z,12.55
2023-04-16T13:27:44.152Z,12.42
2023-04-16T13:30:16.964Z,11.98
2023-04-16T13:32:47.815Z,12.42
2023-04-16T13:35:17.529Z,12.46
2023-04-16T13:37:48.539Z,12.56
2023-04-16T13:40:18.576Z,12.40
2023-04-16T13:42:48.681Z,12.19
2023-04-16T13:45:19.941Z,12.38
2023-04-16T13:47:49.184Z,11.94
2023-04-16T13:50:19.720Z,11.97
2023-04-16T13:52:50.050Z,12.25
2023-04-16T13:55:20.055Z,12.00
2023-04-16T13:57:55.622Z,12.22
2023-04-16T14:00:25.743Z,11.64
2023-04-16T14:02:55.467Z,11.38
2023-04-16T14:05:27.125Z,11.96
2023-04-16T14:07:55.591Z,12.07
2023-04-16T14:10:25.807Z,11.49
2023-04-16T14:12:57.010Z,11.50
2023-04-16T14:15:30.920Z,11.61
2023-04-16T14:18:01.451Z,11.69
2023-04-16T14:20:30.850Z,11.87
2023-04-16T14:23:04.150Z,11.90
2023-04-16T14:25:35.150Z,11.98
2023-04-16T14:28:05.026Z,12.00
2023-04-16T14:30:35.076Z,11.57
2023-04-16T14:33:06.882Z,11.61
2023-04-16T14:35:37.025Z,11.54
2023-04-16T14:38:07.832Z,11.85
2023-04-16T14:40:40.538Z,11.65
2023-04-16T14:43:11.211Z,11.39
2023-04-16T14:45:41.220Z,11.76
2023-04-16T14:48:11.639Z,11.37
2023-04-16T14:50:43.320Z,11.77
2023-04-16T14:53:12.637Z,11.74
2023-04-16T14:55:42.648Z,11.74
2023-04-16T14:58:13.658Z,11.73
2023-04-16T15:00:42.859Z,11.81
2023-04-16T15:03:14.126Z,11.89
2023-04-16T15:05:45.731Z,12.33
2023-04-16T15:08:18.379Z,11.99
2023-04-16T15:10:48.390Z,12.03
2023-04-16T15:13:18.740Z,12.14
2023-04-16T15:15:48.864Z,12.30
2023-04-16T15:18:20.590Z,12.08
2023-04-16T15:20:50.766Z,8.82
2023-04-16T15:23:20.899Z,12.13
2023-04-16T15:25:54.188Z,11.77
2023-04-16T15:28:24.521Z,12.01
2023-04-16T15:30:54.998Z,12.31
2023-04-16T15:33:26.718Z,12.15
2023-04-16T15:35:58.254Z,12.27
2023-04-16T15:38:29.958Z,12.13
2023-04-16T15:40:58.898Z,12.27
2023-04-16T15:43:30.726Z,11.94
2023-04-16T15:45:58.339Z,12.50
2023-04-16T15:48:28.448Z,12.39
2023-04-16T15:51:01.258Z,12.48
2023-04-16T15:53:31.763Z,12.20
2023-04-16T15:56:01.697Z,12.35
2023-04-16T15:58:31.994Z,12.11
2023-04-16T16:01:02.067Z,12.40
2023-04-16T16:03:33.351Z,12.16
2023-04-16T16:06:03.971Z,12.06
2023-04-16T16:08:35.136Z,12.13
2023-04-16T16:11:02.666Z,12.25
2023-04-16T16:13:32.780Z,12.39
2023-04-16T16:16:03.321Z,12.37
2023-04-16T16:18:38.009Z,12.24
2023-04-16T16:21:08.039Z,12.34
2023-04-16T16:23:40.006Z,12.36
2023-04-16T16:26:16.865Z,12.31
2023-04-16T16:28:47.311Z,12.40
2023-04-16T16:31:17.593Z,12.15
2023-04-16T16:33:48.119Z,12.33
2023-04-16T16:36:18.372Z,12.63
2023-04-16T16:38:48.582Z,12.53
2023-04-16T16:41:19.837Z,12.26
2023-04-16T16:43:55.466Z,12.52
2023-04-16T16:46:22.944Z,12.21
2023-04-16T16:48:53.965Z,12.01
2023-04-16T16:51:29.733Z,12.45
2023-04-16T16:53:58.340Z,12.41
2023-04-16T16:56:28.231Z,12.11
2023-04-16T16:59:00.131Z,12.30
2023-04-16T17:01:29.160Z,12.19
2023-04-16T17:03:59.021Z,12.13
2023-04-16T17:06:29.381Z,12.20
2023-04-16T17:09:03.302Z,11.97
2023-04-16T17:11:32.802Z,12.41
2023-04-16T17:14:03.387Z,12.36
2023-04-16T17:16:33.424Z,12.40
2023-04-16T17:19:03.649Z,12.38
2023-04-16T17:21:33.638Z,12.16
2023-04-16T17:24:04.219Z,12.22
2023-04-16T17:26:40.201Z,12.48
2023-04-16T17:29:08.775Z,12.32
2023-04-16T17:31:38.789Z,12.35
2023-04-16T17:34:09.748Z,12.25
2023-04-16T17:36:39.433Z,12.37
2023-04-16T17:39:09.578Z,12.34
2023-04-16T17:41:39.730Z,12.37
2023-04-16T17:44:13.333Z,12.19
2023-04-16T17:46:44.116Z,12.14
2023-04-16T17:49:14.992Z,12.36
2023-04-16T17:51:44.900Z,12.46
2023-04-16T17:54:14.910Z,12.46
2023-04-16T17:56:45.568Z,11.95
2023-04-16T17:59:16.024Z,12.35
2023-04-16T18:01:49.110Z,12.40
2023-04-16T18:04:19.638Z,12.31
2023-04-16T18:06:49.284Z,12.17
2023-04-16T18:09:19.525Z,11.78
2023-04-16T18:11:49.848Z,12.04
2023-04-16T18:14:21.013Z,12.41
2023-04-16T18:16:50.755Z,11.99
2023-04-16T18:19:25.858Z,11.84
2023-04-16T18:21:55.753Z,12.27
2023-04-16T18:24:26.267Z,12.38
2023-04-16T18:26:56.313Z,12.03
2023-04-16T18:29:26.469Z,12.53
2023-04-16T18:31:56.574Z,12.59
2023-04-16T18:34:28.852Z,12.51
2023-04-16T18:37:03.723Z,10.11
2023-04-16T18:39:33.974Z,12.49
2023-04-16T18:42:04.448Z,12.36
2023-04-16T18:44:33.937Z,12.51
2023-04-16T18:47:03.937Z,12.42
2023-04-16T18:49:34.167Z,12.56
2023-04-16T18:52:04.551Z,12.45
2023-04-16T18:54:42.935Z,12.34
2023-04-16T18:57:09.910Z,12.47
2023-04-16T18:59:40.409Z,12.38
2023-04-16T19:02:11.421Z,12.16
2023-04-16T19:04:41.924Z,12.52
2023-04-16T19:07:12.535Z,12.16
2023-04-16T19:09:43.066Z,11.88
2023-04-16T19:12:18.351Z,11.90
2023-04-16T19:14:48.364Z,11.81
2023-04-16T19:17:18.222Z,12.43
2023-04-16T19:19:48.370Z,12.37
2023-04-16T19:22:18.755Z,11.87
2023-04-16T19:24:48.771Z,12.40
2023-04-16T19:27:19.653Z,12.49
2023-04-16T19:29:53.988Z,12.35
2023-04-16T19:32:23.760Z,12.46
2023-04-16T19:34:53.939Z,12.08
2023-04-16T19:37:24.784Z,12.21
2023-04-16T19:39:54.666Z,12.35
2023-04-16T19:42:25.667Z,12.44
2023-04-16T19:44:55.192Z,12.19
2023-04-16T19:47:30.087Z,12.47
2023-04-16T19:50:00.219Z,12.34
2023-04-16T19:52:29.894Z,12.47
2023-04-16T19:55:00.166Z,12.33
2023-04-16T19:57:30.967Z,12.37
2023-04-16T20:00:01.772Z,11.34
2023-04-16T20:02:31.771Z,12.58
2023-04-16T20:05:08.472Z,12.64
2023-04-16T20:07:37.715Z,12.65
2023-04-16T20:10:08.246Z,12.65
2023-04-16T20:12:39.011Z,12.66
2023-04-16T20:15:11.406Z,11.94
2023-04-16T20:17:43.234Z,12.43
2023-04-16T20:20:14.987Z,12.40
2023-04-16T20:22:46.585Z,12.62
2023-04-16T20:25:20.882Z,12.56
2023-04-16T20:27:47.455Z,12.01
2023-04-16T20:30:21.800Z,12.59
2023-04-16T20:32:50.552Z,12.32
2023-04-16T20:35:21.815Z,12.47
2023-04-16T20:37:51.722Z,12.51
2023-04-16T20:40:29.751Z,12.47
2023-04-16T20:42:59.167Z,12.05
2023-04-16T20:45:37.239Z,12.19
2023-04-16T20:48:07.179Z,12.24
2023-04-16T20:50:33.378Z,12.47
2023-04-16T20:53:01.306Z,11.61
2023-04-16T20:55:32.144Z,9.48
2023-04-16T20:58:03.688Z,12.34
2023-04-16T21:00:35.441Z,12.41
2023-04-16T21:03:06.164Z,11.58
2023-04-16T21:05:41.411Z,11.53
2023-04-16T21:08:13.137Z,11.45
2023-04-16T21:10:43.997Z,12.05
2023-04-16T21:13:17.896Z,12.05
2023-04-16T21:15:47.677Z,12.02
2023-04-16T21:18:17.896Z,12.44
2023-04-16T21:20:47.668Z,12.45
2023-04-16T21:23:19.225Z,12.11
2023-04-16T21:25:49.447Z,12.64
2023-04-16T21:28:19.438Z,11.68
2023-04-16T21:30:52.765Z,10.99
2023-04-16T21:33:23.964Z,11.82
2023-04-16T21:35:54.141Z,11.72
2023-04-16T21:38:23.911Z,11.54
2023-04-16T21:40:56.066Z,12.15
2023-04-16T21:43:31.214Z,11.68
2023-04-16T21:45:58.056Z,12.05
2023-04-16T21:48:27.666Z,12.04
2023-04-16T21:50:58.412Z,12.24
2023-04-16T21:53:31.262Z,11.87
2023-04-16T21:56:00.598Z,12.29
2023-04-16T21:58:32.568Z,12.51
2023-04-16T22:01:02.917Z,12.20
2023-04-16T22:03:33.649Z,12.02
2023-04-16T22:06:04.582Z,12.40
2023-04-16T22:08:34.254Z,11.56
2023-04-16T22:11:05.261Z,12.25
2023-04-16T22:13:35.858Z,12.32
2023-04-16T22:16:11.865Z,12.11
2023-04-16T22:18:42.585Z,12.36
2023-04-16T22:21:12.844Z,11.93
2023-04-16T22:23:44.713Z,12.31
2023-04-16T22:26:13.201Z,12.26
2023-04-16T22:28:42.897Z,12.29
2023-04-16T22:31:14.573Z,11.92
2023-04-16T22:33:50.459Z,9.09
2023-04-16T22:36:20.463Z,12.18
2023-04-16T22:38:50.645Z,12.32
2023-04-16T22:41:22.153Z,11.87
2023-04-16T22:43:52.482Z,12.40
2023-04-16T22:46:21.619Z,12.45
2023-04-16T22:48:53.116Z,12.05
2023-04-16T22:51:27.593Z,11.78
2023-04-16T22:53:58.476Z,12.03
2023-04-16T22:56:30.320Z,12.15
2023-04-16T22:58:58.606Z,12.48
2023-04-16T23:01:29.047Z,12.44
2023-04-16T23:03:59.481Z,11.83
2023-04-16T23:06:30.750Z,12.42
2023-04-16T23:09:06.391Z,12.47
2023-04-16T23:11:36.702Z,12.50
2023-04-16T23:14:07.544Z,12.59
2023-04-16T23:16:36.790Z,12.43
2023-04-16T23:19:13.913Z,12.59
2023-04-16T23:21:40.770Z,12.39
2023-04-16T23:24:18.003Z,12.42
2023-04-16T23:26:48.585Z,12.12
2023-04-16T23:29:19.911Z,11.32
2023-04-16T23:31:48.901Z,12.03
2023-04-16T23:34:24.688Z,12.41
2023-04-16T23:36:54.649Z,12.53
2023-04-16T23:39:24.826Z,12.16
2023-04-16T23:41:56.851Z,12.08
2023-04-16T23:44:25.850Z,12.37
2023-04-16T23:46:56.531Z,12.01
2023-04-16T23:49:25.774Z,12.32
2023-04-16T23:52:02.785Z,11.43
2023-04-16T23:54:32.918Z,11.45
2023-04-16T23:57:03.174Z,12.20
2023-04-16T23:59:33.558Z,12.42
